Time;durP1;ratioP1;P1;durP2;ratioP2;P2;SDS_P1;SDS_P2;PMS_P1;PMS_P2;Temp;Humidity;BMP_temperature;BMP_pressure;BME280_temperature;BME280_humidity;BME280_pressure;Samples;Min_cycle;Max_cycle;Signal;HPM_P1;HPM_P2
2021/06/30 00:02:39;;;;;;;73.53;69.83;;;15.00;99.90;;;;;;4917582;29;20830;-91
2021/06/30 00:05:26;;;;;;;76.10;72.30;;;15.30;99.90;;;;;;4936377;29;20506;-86
2021/06/30 00:08:22;;;;;;;72.10;68.40;;;15.10;99.90;;;;;;4936765;29;20511;-90
2021/06/30 00:10:53;;;;;;;70.40;66.70;;;15.30;99.90;;;;;;4976138;28;20478;-91
2021/06/30 00:13:33;;;;;;;72.03;68.33;;;15.10;99.90;;;;;;4976886;28;20539;-90
2021/06/30 00:16:18;;;;;;;77.23;73.33;;;15.10;99.90;;;;;;4977087;28;20896;-88
2021/06/30 00:18:48;;;;;;;76.47;72.67;;;15.30;99.90;;;;;;4976740;28;20484;-89
2021/06/30 00:21:23;;;;;;;79.20;75.30;;;15.10;99.90;;;;;;4976821;28;20461;-88
2021/06/30 00:23:54;;;;;;;79.73;75.83;;;15.00;99.90;;;;;;4976619;28;20519;-90
2021/06/30 00:26:38;;;;;;;72.50;68.80;;;15.10;99.90;;;;;;4975999;28;20461;-87
2021/06/30 00:29:15;;;;;;;72.30;68.60;;;14.90;99.90;;;;;;4976380;28;20576;-89
2021/06/30 00:31:47;;;;;;;74.83;71.03;;;15.10;99.90;;;;;;4976705;28;20467;-90
2021/06/30 00:34:24;;;;;;;68.43;64.83;;;15.10;99.90;;;;;;4976483;28;20497;-91
2021/06/30 00:36:53;;;;;;;70.60;66.90;;;15.00;99.90;;;;;;4976392;28;20536;-89
2021/06/30 00:39:24;;;;;;;67.17;63.67;;;14.70;99.90;;;;;;4975642;28;20465;-89
2021/06/30 00:41:58;;;;;;;67.40;63.90;;;14.80;99.90;;;;;;4976465;28;20980;-90
2021/06/30 00:44:33;;;;;;;65.43;61.93;;;14.80;99.90;;;;;;4976460;28;20462;-91
2021/06/30 00:47:03;;;;;;;68.40;64.90;;;14.50;99.90;;;;;;4976523;28;20464;-89
2021/06/30 00:49:34;;;;;;;61.97;58.67;;;14.60;99.90;;;;;;4976518;28;20467;-88
2021/06/30 00:52:03;;;;;;;60.40;57.20;;;14.40;99.90;;;;;;4976546;28;20518;-88
2021/06/30 00:54:47;;;;;;;62.20;58.90;;;14.50;99.90;;;;;;4975316;28;20509;-90
2021/06/30 00:57:15;;;;;;;63.17;59.83;;;14.50;99.90;;;;;;4975945;28;20489;-91
2021/06/30 00:59:46;;;;;;;62.07;58.77;;;14.50;99.90;;;;;;4976162;28;20841;-90
2021/06/30 01:02:13;;;;;;;60.90;57.70;;;14.40;99.90;;;;;;4976389;28;20833;-92
2021/06/30 01:04:44;;;;;;;61.43;58.23;;;14.50;99.90;;;;;;4976225;28;20515;-88
2021/06/30 01:07:13;;;;;;;63.50;60.20;;;14.60;99.90;;;;;;4976014;28;20456;-89
2021/06/30 01:09:47;;;;;;;63.37;60.07;;;14.70;99.90;;;;;;4974986;28;20466;-88
2021/06/30 01:12:17;;;;;;;62.77;59.47;;;14.60;99.90;;;;;;4976110;28;20582;-88
2021/06/30 01:14:46;;;;;;;63.87;60.57;;;14.70;99.90;;;;;;4975933;28;20461;-91
2021/06/30 01:17:13;;;;;;;70.40;66.90;;;14.80;99.90;;;;;;4975909;28;20461;-90
2021/06/30 01:19:47;;;;;;;71.50;67.90;;;14.90;99.90;;;;;;4975692;28;20513;-91
2021/06/30 01:22:16;;;;;;;69.63;66.10;;;14.80;99.90;;;;;;4975625;28;20519;-88
2021/06/30 01:24:51;;;;;;;73.33;69.63;;;14.80;99.90;;;;;;4975043;28;20540;-87
2021/06/30 01:27:19;;;;;;;71.53;67.93;;;14.80;99.90;;;;;;4975963;28;20825;-89
2021/06/30 01:29:58;;;;;;;73.90;70.20;;;14.80;99.90;;;;;;4975447;28;20497;-89
2021/06/30 01:32:26;;;;;;;76.33;72.53;;;14.90;99.90;;;;;;4975574;28;20508;-85
2021/06/30 01:34:55;;;;;;;75.40;71.60;;;15.00;99.90;;;;;;4975654;28;20827;-87
2021/06/30 01:37:24;;;;;;;77.43;73.53;;;14.90;99.90;;;;;;4975395;28;20983;-88
2021/06/30 01:39:53;;;;;;;74.80;71.00;;;14.70;99.90;;;;;;4974596;28;20458;-89
2021/06/30 01:42:23;;;;;;;74.40;70.60;;;15.00;99.90;;;;;;4975386;28;20468;-89
2021/06/30 01:44:52;;;;;;;77.60;73.70;;;14.80;99.90;;;;;;4975638;28;20829;-89
2021/06/30 01:47:22;;;;;;;72.40;68.70;;;14.70;99.90;;;;;;4975249;28;20461;-86
2021/06/30 01:49:51;;;;;;;72.87;69.17;;;14.70;99.90;;;;;;4975284;28;20465;-89
2021/06/30 01:52:19;;;;;;;71.77;68.03;;;14.60;99.90;;;;;;4975377;28;20457;-90
2021/06/30 01:54:46;;;;;;;69.53;65.87;;;14.80;99.90;;;;;;4974249;28;20509;-91
2021/06/30 01:57:32;;;;;;;69.63;66.03;;;14.60;99.90;;;;;;4974967;28;20456;-89
2021/06/30 02:00:01;;;;;;;73.20;69.50;;;14.70;99.90;;;;;;4975329;28;20468;-89
2021/06/30 02:02:30;;;;;;;67.23;63.63;;;14.80;99.90;;;;;;4975075;28;20454;-89
2021/06/30 02:05:08;;;;;;;68.70;65.10;;;14.50;99.90;;;;;;4975249;28;20561;-90
2021/06/30 02:07:39;;;;;;;69.10;65.50;;;14.70;99.90;;;;;;4974942;28;20456;-86
2021/06/30 02:10:11;;;;;;;72.33;68.63;;;14.60;99.90;;;;;;4973983;28;20524;-91
2021/06/30 02:12:39;;;;;;;71.10;67.40;;;14.50;99.90;;;;;;4957152;28;20458;-87
2021/06/30 02:15:09;;;;;;;68.60;65.00;;;14.60;99.90;;;;;;4975025;28;20870;-88
2021/06/30 02:17:37;;;;;;;73.10;69.30;;;14.50;99.90;;;;;;4974977;28;20461;-90
2021/06/30 02:20:17;;;;;;;69.60;65.90;;;14.60;99.90;;;;;;4975187;28;20489;-86
2021/06/30 02:22:45;;;;;;;68.70;65.10;;;14.40;99.90;;;;;;4974770;28;20469;-86
2021/06/30 02:25:16;;;;;;;66.43;62.93;;;14.40;99.90;;;;;;4973874;28;20465;-89
2021/06/30 02:27:51;;;;;;;72.97;69.20;;;14.30;99.90;;;;;;4974881;28;20460;-88
2021/06/30 02:30:20;;;;;;;71.73;68.03;;;14.40;99.90;;;;;;4974451;28;20485;-91
2021/06/30 02:32:47;;;;;;;74.47;70.67;;;14.60;99.90;;;;;;4974564;28;20489;-84
2021/06/30 02:35:16;;;;;;;72.23;68.53;;;14.50;99.90;;;;;;4974813;28;20515;-86
2021/06/30 02:37:47;;;;;;;69.00;65.40;;;14.50;99.90;;;;;;4974789;28;20477;-89
2021/06/30 02:40:24;;;;;;;74.23;70.43;;;14.40;99.90;;;;;;4974099;28;20458;-90
2021/06/30 02:42:55;;;;;;;74.23;70.43;;;14.50;99.90;;;;;;4975093;28;20511;-88
2021/06/30 02:45:22;;;;;;;71.93;68.13;;;14.40;99.90;;;;;;4974931;28;20508;-89
2021/06/30 02:47:50;;;;;;;70.77;67.07;;;14.40;99.90;;;;;;4974927;28;20512;-92
2021/06/30 02:50:19;;;;;;;68.17;64.57;;;14.40;99.90;;;;;;4974795;28;20946;-91
2021/06/30 02:52:51;;;;;;;69.00;65.37;;;14.40;99.90;;;;;;4974524;28;20468;-88
2021/06/30 02:55:18;;;;;;;70.63;66.93;;;14.20;99.90;;;;;;4973876;28;20453;-88
2021/06/30 02:57:55;;;;;;;69.20;65.60;;;14.60;99.90;;;;;;4973878;28;20452;-92
2021/06/30 03:00:31;;;;;;;71.10;67.40;;;14.40;99.90;;;;;;4973929;28;20461;-89
2021/06/30 03:02:58;;;;;;;75.93;72.03;;;14.50;99.90;;;;;;4974070;28;20528;-89
2021/06/30 03:05:24;;;;;;;77.53;73.53;;;14.50;99.90;;;;;;4974070;28;20507;-86
2021/06/30 03:07:54;;;;;;;78.10;74.20;;;14.50;99.90;;;;;;4974108;28;20508;-89
2021/06/30 03:10:26;;;;;;;79.43;75.43;;;14.60;99.90;;;;;;4974584;28;20454;-87
2021/06/30 03:12:53;;;;;;;82.50;78.40;;;14.70;99.90;;;;;;4978329;28;20511;-91
2021/06/30 03:15:20;;;;;;;84.30;80.20;;;14.70;99.90;;;;;;4977966;28;20454;-88
2021/06/30 03:17:50;;;;;;;76.40;72.50;;;14.70;99.90;;;;;;4978077;28;20445;-87
2021/06/30 03:20:17;;;;;;;75.90;71.90;;;14.70;99.90;;;;;;4977983;28;20464;-87
2021/06/30 03:22:45;;;;;;;81.70;77.57;;;14.70;99.90;;;;;;4978291;28;20548;-87
2021/06/30 03:25:18;;;;;;;91.83;87.40;;;14.80;99.90;;;;;;4977108;28;20461;-84
2021/06/30 03:27:45;;;;;;;91.10;86.70;;;14.70;99.90;;;;;;4977691;28;20937;-88
2021/06/30 03:30:14;;;;;;;92.00;87.50;;;14.60;99.90;;;;;;4977948;28;20916;-88
2021/06/30 03:32:42;;;;;;;90.70;86.27;;;14.60;99.90;;;;;;4977852;28;20461;-91
2021/06/30 03:35:11;;;;;;;97.00;92.30;;;14.70;99.90;;;;;;4977961;28;20549;-87
2021/06/30 03:37:40;;;;;;;95.30;90.73;;;14.60;99.90;;;;;;4977692;28;20515;-89
2021/06/30 03:40:10;;;;;;;95.73;91.13;;;14.70;99.90;;;;;;4976745;28;20525;-90
2021/06/30 03:42:44;;;;;;;102.23;97.43;;;14.70;99.90;;;;;;4944508;28;20549;-88
2021/06/30 03:45:14;;;;;;;103.20;98.40;;;14.80;99.90;;;;;;4977586;28;20564;-90
2021/06/30 03:47:41;;;;;;;103.73;98.83;;;14.70;99.90;;;;;;4977882;28;20971;-84
2021/06/30 03:50:10;;;;;;;108.10;103.00;;;14.80;99.90;;;;;;4979136;28;20876;-88
2021/06/30 03:52:37;;;;;;;108.30;103.30;;;14.80;99.90;;;;;;4977735;28;20889;-86
2021/06/30 03:55:05;;;;;;;111.57;106.37;;;14.80;99.90;;;;;;4976386;28;20973;-86
2021/06/30 03:57:32;;;;;;;112.97;107.67;;;14.80;99.90;;;;;;4977690;28;20541;-89
2021/06/30 03:59:59;;;;;;;113.33;108.03;;;15.00;99.90;;;;;;4972637;28;20485;-82
2021/06/30 04:02:25;;;;;;;102.87;97.93;;;15.00;99.90;;;;;;4958028;29;20509;-90
2021/06/30 04:04:52;;;;;;;107.13;102.03;;;15.00;99.90;;;;;;4958116;29;20573;-84
2021/06/30 04:07:21;;;;;;;109.90;104.70;;;14.80;99.90;;;;;;4958057;29;20651;-85
2021/06/30 04:09:47;;;;;;;119.10;113.60;;;14.90;99.90;;;;;;4956716;29;20549;-89
2021/06/30 04:12:14;;;;;;;123.80;118.10;;;14.90;99.90;;;;;;4957569;29;20469;-87
2021/06/30 04:14:41;;;;;;;118.10;112.57;;;14.90;99.90;;;;;;4957924;29;20458;-89
2021/06/30 04:17:08;;;;;;;121.60;116.00;;;15.00;99.90;;;;;;4957694;29;20457;-89
2021/06/30 04:19:35;;;;;;;133.67;127.57;;;15.00;99.90;;;;;;4957515;29;21013;-83
2021/06/30 04:25:37;;;;;;;131.07;125.07;;;15.00;99.90;;;;;;4869221;29;20453;-85
2021/06/30 04:28:04;;;;;;;133.30;127.20;;;15.10;99.90;;;;;;4879695;29;20659;-82
2021/06/30 04:30:34;;;;;;;133.73;127.63;;;15.20;99.90;;;;;;4912631;28;20535;-86
2021/06/30 04:33:01;;;;;;;139.43;133.13;;;15.10;99.90;;;;;;4976582;28;21015;-85
2021/06/30 04:35:28;;;;;;;153.13;146.43;;;15.30;99.90;;;;;;4976659;28;20978;-87
2021/06/30 04:38:29;;;;;;;;;;;;;;;;;;;;;
2021/06/30 04:47:18;;;;;;;151.57;144.83;;;15.30;99.90;;;;;;4935723;29;20471;-86
2021/06/30 05:00:20;;;;;;;154.43;147.40;;;15.20;99.90;;;;;;4689944;30;20997;-86
2021/06/30 05:03:13;;;;;;;163.20;155.80;;;15.30;99.90;;;;;;4789332;29;20469;-83
2021/06/30 05:06:02;;;;;;;163.03;155.73;;;15.20;99.90;;;;;;4823530;29;20469;-85
2021/06/30 05:11:39;;;;;;;168.43;160.93;;;15.30;99.90;;;;;;4930765;29;20820;-83
2021/06/30 05:14:06;;;;;;;178.00;170.20;;;15.30;99.90;;;;;;4949263;28;20473;-87
2021/06/30 05:16:39;;;;;;;187.53;179.47;;;15.20;99.90;;;;;;4975661;28;20552;-82
2021/06/30 05:19:29;;;;;;;193.27;185.07;;;15.20;99.90;;;;;;4975642;28;20489;-87
2021/06/30 05:22:01;;;;;;;194.10;185.80;;;15.30;99.90;;;;;;4975859;28;20457;-87
2021/06/30 05:24:34;;;;;;;211.17;202.47;;;15.40;99.90;;;;;;4974948;28;20466;-83
2021/06/30 05:27:01;;;;;;;235.20;225.80;;;15.30;99.90;;;;;;4975735;28;20462;-79
2021/06/30 05:29:28;;;;;;;226.33;217.30;;;15.50;99.90;;;;;;4975525;28;20486;-79
2021/06/30 05:31:54;;;;;;;250.87;241.17;;;15.40;99.90;;;;;;4975440;28;20509;-78
2021/06/30 05:34:25;;;;;;;231.13;221.90;;;15.40;99.90;;;;;;4975059;28;20469;-79
2021/06/30 05:36:52;;;;;;;233.33;224.00;;;15.50;99.90;;;;;;4975206;28;20874;-80
2021/06/30 05:39:20;;;;;;;273.43;263.13;;;15.50;99.90;;;;;;4974291;28;20560;-79
2021/06/30 05:41:48;;;;;;;264.50;254.43;;;15.50;99.90;;;;;;4975352;28;20458;-79
2021/06/30 05:44:16;;;;;;;280.80;270.27;;;15.60;99.90;;;;;;4975312;28;20473;-79
2021/06/30 05:46:45;;;;;;;306.47;295.20;;;15.80;99.90;;;;;;4974927;28;20458;-79
2021/06/30 05:49:12;;;;;;;330.07;318.20;;;15.90;99.90;;;;;;4975130;28;20565;-79
2021/06/30 05:54:24;;;;;;;379.97;366.83;;;15.90;99.90;;;;;;4973619;28;20541;-90
2021/06/30 05:56:51;;;;;;;380.80;367.63;;;16.10;99.90;;;;;;4979282;28;20456;-92
2021/06/30 05:59:18;;;;;;;442.67;428.03;;;16.20;99.90;;;;;;4978199;28;20573;-89
2021/06/30 06:01:53;;;;;;;474.47;459.07;;;16.30;99.90;;;;;;4975093;28;20469;-90
2021/06/30 06:04:20;;;;;;;502.17;485.97;;;16.50;99.90;;;;;;4974882;28;20454;-85
2021/06/30 06:06:54;;;;;;;577.37;559.37;;;16.70;99.90;;;;;;4974739;28;20566;-86
2021/06/30 06:15:25;;;;;;;710.77;689.23;;;16.50;99.90;;;;;;4954881;28;20455;-89
2021/06/30 06:21:01;;;;;;;568.97;551.27;;;16.40;99.90;;;;;;4937034;29;20479;-92
2021/06/30 06:33:50;;;;;;;228.73;219.73;;;15.60;99.90;;;;;;4800463;29;20467;-84
2021/06/30 06:37:09;;;;;;;;;;;;;;;;;;;;;
2021/06/30 06:39:58;;;;;;;;;;;;;;;;;;;;;
2021/06/30 06:42:33;;;;;;;172.20;164.87;;;15.40;99.90;;;;;;4874012;29;20457;-86
2021/06/30 06:45:10;;;;;;;180.93;173.33;;;15.50;99.90;;;;;;4914500;29;20476;-88
2021/06/30 06:47:37;;;;;;;190.77;182.87;;;15.60;99.90;;;;;;4948872;28;20460;-79
2021/06/30 06:50:07;;;;;;;172.40;164.90;;;15.80;99.90;;;;;;4954889;28;20447;-78
2021/06/30 08:35:58;;;;;;;162.83;155.03;;;18.90;67.40;;;;;;4775187;29;20566;-80
2021/06/30 08:38:45;;;;;;;146.50;139.00;;;19.60;65.60;;;;;;4844362;29;20789;-89
2021/06/30 08:41:26;;;;;;;116.67;110.10;;;19.90;62.70;;;;;;4948077;29;21183;-83
2021/06/30 08:43:53;;;;;;;81.33;75.73;;;19.60;63.60;;;;;;4956550;29;20535;-81
2021/06/30 08:46:21;;;;;;;46.03;41.53;;;19.80;59.40;;;;;;4957552;29;20456;-80
2021/06/30 08:48:51;;;;;;;40.00;29.50;;;19.90;63.10;;;;;;4956160;29;20981;-79
2021/06/30 08:51:22;;;;;;;35.03;22.50;;;19.80;58.40;;;;;;4956949;29;20508;-81
2021/06/30 08:53:49;;;;;;;33.97;19.40;;;19.70;57.40;;;;;;4956837;29;20466;-79
2021/06/30 08:56:19;;;;;;;32.30;12.60;;;20.10;56.90;;;;;;4955720;29;20464;-79
2021/06/30 08:58:49;;;;;;;31.77;11.40;;;20.00;50.80;;;;;;4956869;29;20462;-77
2021/06/30 09:01:16;;;;;;;31.43;10.17;;;20.00;47.20;;;;;;4956562;29;20492;-80
2021/06/30 09:03:49;;;;;;;30.87;8.67;;;20.40;50.90;;;;;;4956737;29;20971;-76
2021/06/30 09:06:53;;;;;;;29.70;7.50;;;19.90;50.00;;;;;;4957550;29;20504;-86
2021/06/30 09:18:52;;;;;;;28.90;5.83;;;20.50;47.20;;;;;;4955422;29;20551;-82
2021/06/30 09:21:20;;;;;;;28.53;5.40;;;20.50;45.40;;;;;;4956199;29;20484;-83
2021/06/30 09:24:08;;;;;;;30.37;5.73;;;20.50;43.20;;;;;;4956440;29;20492;-82
2021/06/30 09:43:17;;;;;;;28.70;3.20;;;21.20;36.10;;;;;;4781884;29;20537;-90
2021/06/30 09:52:21;;;;;;;26.40;2.30;;;19.30;44.10;;;;;;4858554;29;20494;-86
2021/06/30 09:54:58;;;;;;;25.30;2.57;;;19.20;43.20;;;;;;4858600;29;20599;-84
2021/06/30 10:22:57;;;;;;;28.97;3.87;;;23.30;27.10;;;;;;4676864;30;20463;-78
